sensor_id;sensor_type;location;lat;lon;timestamp;temperature;humidity
65046;DHT22;54657;52.022;5.534;2024-03-17T00:00:22;8.20;83.70
65046;DHT22;54657;52.022;5.534;2024-03-17T00:02:48;8.20;83.80
65046;DHT22;54657;52.022;5.534;2024-03-17T00:05:15;8.20;83.80
65046;DHT22;54657;52.022;5.534;2024-03-17T00:07:41;8.20;83.80
65046;DHT22;54657;52.022;5.534;2024-03-17T00:10:06;8.20;83.80
65046;DHT22;54657;52.022;5.534;2024-03-17T00:12:33;8.20;83.80
65046;DHT22;54657;52.022;5.534;2024-03-17T00:14:59;8.30;83.80
65046;DHT22;54657;52.022;5.534;2024-03-17T00:17:24;8.20;83.80
65046;DHT22;54657;52.022;5.534;2024-03-17T00:19:50;8.20;83.90
65046;DHT22;54657;52.022;5.534;2024-03-17T00:22:16;8.20;84.00
65046;DHT22;54657;52.022;5.534;2024-03-17T00:24:43;8.20;84.00
65046;DHT22;54657;52.022;5.534;2024-03-17T00:27:09;8.20;84.10
65046;DHT22;54657;52.022;5.534;2024-03-17T00:29:35;8.20;84.10
65046;DHT22;54657;52.022;5.534;2024-03-17T00:32:00;8.20;84.10
65046;DHT22;54657;52.022;5.534;2024-03-17T00:34:26;8.20;84.10
65046;DHT22;54657;52.022;5.534;2024-03-17T00:36:51;8.20;84.20
65046;DHT22;54657;52.022;5.534;2024-03-17T00:39:17;8.20;84.20
65046;DHT22;54657;52.022;5.534;2024-03-17T00:41:44;8.20;84.30
65046;DHT22;54657;52.022;5.534;2024-03-17T00:44:09;8.20;84.30
65046;DHT22;54657;52.022;5.534;2024-03-17T00:46:35;8.20;84.40
65046;DHT22;54657;52.022;5.534;2024-03-17T00:49:00;8.20;84.30
65046;DHT22;54657;52.022;5.534;2024-03-17T00:51:26;8.20;84.40
65046;DHT22;54657;52.022;5.534;2024-03-17T00:53:51;8.20;84.40
65046;DHT22;54657;52.022;5.534;2024-03-17T00:56:17;8.30;84.40
65046;DHT22;54657;52.022;5.534;2024-03-17T00:58:43;8.20;84.50
65046;DHT22;54657;52.022;5.534;2024-03-17T01:01:10;8.20;84.40
65046;DHT22;54657;52.022;5.534;2024-03-17T01:03:35;8.20;84.50
65046;DHT22;54657;52.022;5.534;2024-03-17T01:06:04;8.20;84.60
65046;DHT22;54657;52.022;5.534;2024-03-17T01:08:30;8.20;84.70
65046;DHT22;54657;52.022;5.534;2024-03-17T01:10:55;8.30;84.70
65046;DHT22;54657;52.022;5.534;2024-03-17T01:13:21;8.30;84.70
65046;DHT22;54657;52.022;5.534;2024-03-17T01:15:51;8.30;84.70
65046;DHT22;54657;52.022;5.534;2024-03-17T01:18:17;8.30;84.70
65046;DHT22;54657;52.022;5.534;2024-03-17T01:20:44;8.30;84.60
65046;DHT22;54657;52.022;5.534;2024-03-17T01:23:09;8.30;84.70
65046;DHT22;54657;52.022;5.534;2024-03-17T01:25:36;8.30;84.70
65046;DHT22;54657;52.022;5.534;2024-03-17T01:28:03;8.30;84.80
65046;DHT22;54657;52.022;5.534;2024-03-17T01:30:29;8.40;84.90
65046;DHT22;54657;52.022;5.534;2024-03-17T01:32:55;8.40;84.90
65046;DHT22;54657;52.022;5.534;2024-03-17T01:35:20;8.30;84.90
65046;DHT22;54657;52.022;5.534;2024-03-17T01:37:46;8.30;85.00
65046;DHT22;54657;52.022;5.534;2024-03-17T01:40:11;8.30;85.00
65046;DHT22;54657;52.022;5.534;2024-03-17T01:42:41;8.30;85.10
65046;DHT22;54657;52.022;5.534;2024-03-17T01:47:41;8.30;85.40
65046;DHT22;54657;52.022;5.534;2024-03-17T01:50:07;8.30;85.20
65046;DHT22;54657;52.022;5.534;2024-03-17T01:52:34;8.30;85.20
65046;DHT22;54657;52.022;5.534;2024-03-17T01:55:00;8.30;85.20
65046;DHT22;54657;52.022;5.534;2024-03-17T01:57:26;8.30;85.20
65046;DHT22;54657;52.022;5.534;2024-03-17T01:59:51;8.20;85.50
65046;DHT22;54657;52.022;5.534;2024-03-17T02:02:17;8.20;85.60
65046;DHT22;54657;52.022;5.534;2024-03-17T02:04:43;8.20;85.60
65046;DHT22;54657;52.022;5.534;2024-03-17T02:07:08;8.20;85.50
65046;DHT22;54657;52.022;5.534;2024-03-17T02:09:34;8.20;85.60
65046;DHT22;54657;52.022;5.534;2024-03-17T02:11:59;8.20;85.60
65046;DHT22;54657;52.022;5.534;2024-03-17T02:14:25;8.20;85.60
65046;DHT22;54657;52.022;5.534;2024-03-17T02:16:50;8.10;85.60
65046;DHT22;54657;52.022;5.534;2024-03-17T02:19:17;8.10;85.60
65046;DHT22;54657;52.022;5.534;2024-03-17T02:21:42;8.10;85.90
65046;DHT22;54657;52.022;5.534;2024-03-17T02:24:08;8.10;86.00
65046;DHT22;54657;52.022;5.534;2024-03-17T02:26:33;8.10;85.90
65046;DHT22;54657;52.022;5.534;2024-03-17T02:29:00;8.00;86.00
65046;DHT22;54657;52.022;5.534;2024-03-17T02:31:26;7.90;86.10
65046;DHT22;54657;52.022;5.534;2024-03-17T02:33:51;7.90;86.20
65046;DHT22;54657;52.022;5.534;2024-03-17T02:36:17;7.90;86.30
65046;DHT22;54657;52.022;5.534;2024-03-17T02:38:43;7.90;86.50
65046;DHT22;54657;52.022;5.534;2024-03-17T02:41:27;7.90;86.40
65046;DHT22;54657;52.022;5.534;2024-03-17T02:43:56;7.90;86.20
65046;DHT22;54657;52.022;5.534;2024-03-17T02:46:21;7.90;86.30
65046;DHT22;54657;52.022;5.534;2024-03-17T02:48:52;7.90;86.30
65046;DHT22;54657;52.022;5.534;2024-03-17T02:51:19;7.90;86.30
65046;DHT22;54657;52.022;5.534;2024-03-17T02:53:46;7.90;86.40
65046;DHT22;54657;52.022;5.534;2024-03-17T02:56:13;8.00;86.60
65046;DHT22;54657;52.022;5.534;2024-03-17T02:58:41;8.00;86.40
65046;DHT22;54657;52.022;5.534;2024-03-17T03:01:07;8.00;86.30
65046;DHT22;54657;52.022;5.534;2024-03-17T03:03:35;8.10;86.40
65046;DHT22;54657;52.022;5.534;2024-03-17T03:06:02;8.10;86.30
65046;DHT22;54657;52.022;5.534;2024-03-17T03:08:30;8.10;86.30
65046;DHT22;54657;52.022;5.534;2024-03-17T03:10:56;8.10;86.30
65046;DHT22;54657;52.022;5.534;2024-03-17T03:13:21;8.10;86.10
65046;DHT22;54657;52.022;5.534;2024-03-17T03:15:51;8.10;86.20
65046;DHT22;54657;52.022;5.534;2024-03-17T03:18:17;8.10;86.40
65046;DHT22;54657;52.022;5.534;2024-03-17T03:20:42;8.10;86.20
65046;DHT22;54657;52.022;5.534;2024-03-17T03:23:09;8.20;86.30
65046;DHT22;54657;52.022;5.534;2024-03-17T03:25:34;8.20;86.30
65046;DHT22;54657;52.022;5.534;2024-03-17T03:28:00;8.20;86.30
65046;DHT22;54657;52.022;5.534;2024-03-17T03:30:27;8.20;86.10
65046;DHT22;54657;52.022;5.534;2024-03-17T03:32:55;8.20;86.20
65046;DHT22;54657;52.022;5.534;2024-03-17T03:35:20;8.20;86.30
65046;DHT22;54657;52.022;5.534;2024-03-17T03:37:46;8.20;86.40
65046;DHT22;54657;52.022;5.534;2024-03-17T03:40:12;8.30;86.20
65046;DHT22;54657;52.022;5.534;2024-03-17T03:42:42;8.30;86.10
65046;DHT22;54657;52.022;5.534;2024-03-17T03:45:09;8.20;86.10
65046;DHT22;54657;52.022;5.534;2024-03-17T03:47:38;8.20;86.20
65046;DHT22;54657;52.022;5.534;2024-03-17T03:50:03;8.20;86.10
65046;DHT22;54657;52.022;5.534;2024-03-17T03:52:30;8.20;86.20
65046;DHT22;54657;52.022;5.534;2024-03-17T03:54:55;8.20;86.30
65046;DHT22;54657;52.022;5.534;2024-03-17T03:57:21;8.20;86.30
65046;DHT22;54657;52.022;5.534;2024-03-17T03:59:46;8.20;86.50
65046;DHT22;54657;52.022;5.534;2024-03-17T04:02:12;8.20;86.40
65046;DHT22;54657;52.022;5.534;2024-03-17T04:04:37;8.20;86.30
65046;DHT22;54657;52.022;5.534;2024-03-17T04:07:03;8.20;86.40
65046;DHT22;54657;52.022;5.534;2024-03-17T04:09:29;8.20;86.40
65046;DHT22;54657;52.022;5.534;2024-03-17T04:11:54;8.20;86.50
65046;DHT22;54657;52.022;5.534;2024-03-17T04:14:20;8.20;86.40
65046;DHT22;54657;52.022;5.534;2024-03-17T04:16:45;8.20;86.50
65046;DHT22;54657;52.022;5.534;2024-03-17T04:19:11;8.20;86.60
65046;DHT22;54657;52.022;5.534;2024-03-17T04:21:36;8.10;86.70
65046;DHT22;54657;52.022;5.534;2024-03-17T04:24:02;8.10;86.70
65046;DHT22;54657;52.022;5.534;2024-03-17T04:26:27;8.10;86.80
65046;DHT22;54657;52.022;5.534;2024-03-17T04:28:53;8.10;86.80
65046;DHT22;54657;52.022;5.534;2024-03-17T04:31:18;8.10;86.90
65046;DHT22;54657;52.022;5.534;2024-03-17T04:33:44;8.10;86.90
65046;DHT22;54657;52.022;5.534;2024-03-17T04:36:09;8.10;86.90
65046;DHT22;54657;52.022;5.534;2024-03-17T04:38:35;8.10;87.00
65046;DHT22;54657;52.022;5.534;2024-03-17T04:41:00;8.10;87.10
65046;DHT22;54657;52.022;5.534;2024-03-17T04:43:32;8.10;87.10
65046;DHT22;54657;52.022;5.534;2024-03-17T04:46:03;8.10;87.20
65046;DHT22;54657;52.022;5.534;2024-03-17T04:48:30;8.10;87.30
65046;DHT22;54657;52.022;5.534;2024-03-17T04:50:55;8.10;87.30
65046;DHT22;54657;52.022;5.534;2024-03-17T04:53:21;8.10;87.30
65046;DHT22;54657;52.022;5.534;2024-03-17T04:55:46;8.10;87.90
65046;DHT22;54657;52.022;5.534;2024-03-17T04:58:12;8.00;87.50
65046;DHT22;54657;52.022;5.534;2024-03-17T05:00:37;8.10;87.70
65046;DHT22;54657;52.022;5.534;2024-03-17T05:03:03;8.10;87.60
65046;DHT22;54657;52.022;5.534;2024-03-17T05:05:29;8.10;87.60
65046;DHT22;54657;52.022;5.534;2024-03-17T05:07:54;8.10;87.70
65046;DHT22;54657;52.022;5.534;2024-03-17T05:10:20;8.10;87.70
65046;DHT22;54657;52.022;5.534;2024-03-17T05:12:46;8.20;87.80
65046;DHT22;54657;52.022;5.534;2024-03-17T05:15:12;8.20;87.90
65046;DHT22;54657;52.022;5.534;2024-03-17T05:17:37;8.20;87.90
65046;DHT22;54657;52.022;5.534;2024-03-17T05:20:03;8.20;88.00
65046;DHT22;54657;52.022;5.534;2024-03-17T05:22:30;8.20;87.90
65046;DHT22;54657;52.022;5.534;2024-03-17T05:24:56;8.20;87.80
65046;DHT22;54657;52.022;5.534;2024-03-17T05:27:22;8.20;87.90
65046;DHT22;54657;52.022;5.534;2024-03-17T05:29:47;8.20;87.90
65046;DHT22;54657;52.022;5.534;2024-03-17T05:32:13;8.20;87.90
65046;DHT22;54657;52.022;5.534;2024-03-17T05:34:38;8.20;88.00
65046;DHT22;54657;52.022;5.534;2024-03-17T05:37:04;8.20;88.10
65046;DHT22;54657;52.022;5.534;2024-03-17T05:39:29;8.20;88.20
65046;DHT22;54657;52.022;5.534;2024-03-17T05:41:55;8.20;88.20
65046;DHT22;54657;52.022;5.534;2024-03-17T05:44:20;8.20;88.20
65046;DHT22;54657;52.022;5.534;2024-03-17T05:46:46;8.20;88.20
65046;DHT22;54657;52.022;5.534;2024-03-17T05:49:11;8.20;88.20
65046;DHT22;54657;52.022;5.534;2024-03-17T05:51:37;8.20;88.30
65046;DHT22;54657;52.022;5.534;2024-03-17T05:54:03;8.20;88.30
65046;DHT22;54657;52.022;5.534;2024-03-17T05:56:28;8.20;88.50
65046;DHT22;54657;52.022;5.534;2024-03-17T05:58:54;8.10;88.70
65046;DHT22;54657;52.022;5.534;2024-03-17T06:01:19;8.10;88.90
65046;DHT22;54657;52.022;5.534;2024-03-17T06:03:45;8.20;88.90
65046;DHT22;54657;52.022;5.534;2024-03-17T06:06:10;8.30;88.90
65046;DHT22;54657;52.022;5.534;2024-03-17T06:08:37;8.30;88.80
65046;DHT22;54657;52.022;5.534;2024-03-17T06:11:03;8.40;88.70
65046;DHT22;54657;52.022;5.534;2024-03-17T06:13:29;8.40;88.30
65046;DHT22;54657;52.022;5.534;2024-03-17T06:15:55;8.40;88.20
65046;DHT22;54657;52.022;5.534;2024-03-17T06:18:26;8.40;88.50
65046;DHT22;54657;52.022;5.534;2024-03-17T06:20:52;8.40;88.50
65046;DHT22;54657;52.022;5.534;2024-03-17T06:23:17;8.40;88.60
65046;DHT22;54657;52.022;5.534;2024-03-17T06:25:45;8.50;88.80
65046;DHT22;54657;52.022;5.534;2024-03-17T06:28:12;8.50;88.60
65046;DHT22;54657;52.022;5.534;2024-03-17T06:33:11;8.40;88.70
65046;DHT22;54657;52.022;5.534;2024-03-17T06:35:37;8.50;88.90
65046;DHT22;54657;52.022;5.534;2024-03-17T06:38:03;8.50;88.70
65046;DHT22;54657;52.022;5.534;2024-03-17T06:40:29;8.50;89.00
65046;DHT22;54657;52.022;5.534;2024-03-17T06:42:56;8.60;89.00
65046;DHT22;54657;52.022;5.534;2024-03-17T06:45:22;8.60;88.80
65046;DHT22;54657;52.022;5.534;2024-03-17T06:47:47;8.60;89.00
65046;DHT22;54657;52.022;5.534;2024-03-17T06:50:14;8.60;88.90
65046;DHT22;54657;52.022;5.534;2024-03-17T06:52:40;8.60;88.90
65046;DHT22;54657;52.022;5.534;2024-03-17T06:55:06;8.70;89.50
65046;DHT22;54657;52.022;5.534;2024-03-17T06:57:33;8.70;88.90
65046;DHT22;54657;52.022;5.534;2024-03-17T06:59:59;8.80;88.80
65046;DHT22;54657;52.022;5.534;2024-03-17T07:02:25;8.90;88.90
65046;DHT22;54657;52.022;5.534;2024-03-17T07:04:51;8.90;88.70
65046;DHT22;54657;52.022;5.534;2024-03-17T07:07:16;9.00;88.70
65046;DHT22;54657;52.022;5.534;2024-03-17T07:09:54;9.00;88.50
65046;DHT22;54657;52.022;5.534;2024-03-17T07:12:22;9.10;88.60
65046;DHT22;54657;52.022;5.534;2024-03-17T07:14:51;9.10;88.50
65046;DHT22;54657;52.022;5.534;2024-03-17T07:17:17;9.10;88.50
65046;DHT22;54657;52.022;5.534;2024-03-17T07:19:43;9.20;88.40
65046;DHT22;54657;52.022;5.534;2024-03-17T07:22:08;9.20;88.50
65046;DHT22;54657;52.022;5.534;2024-03-17T07:24:34;9.30;88.30
65046;DHT22;54657;52.022;5.534;2024-03-17T07:26:59;9.30;88.20
65046;DHT22;54657;52.022;5.534;2024-03-17T07:29:25;9.40;88.20
65046;DHT22;54657;52.022;5.534;2024-03-17T07:31:51;9.40;88.00
65046;DHT22;54657;52.022;5.534;2024-03-17T07:34:19;9.40;88.00
65046;DHT22;54657;52.022;5.534;2024-03-17T07:36:45;9.50;88.10
65046;DHT22;54657;52.022;5.534;2024-03-17T07:39:11;9.60;87.90
65046;DHT22;54657;52.022;5.534;2024-03-17T07:41:37;9.60;88.00
65046;DHT22;54657;52.022;5.534;2024-03-17T07:44:03;9.70;87.80
65046;DHT22;54657;52.022;5.534;2024-03-17T07:46:28;9.80;87.80
65046;DHT22;54657;52.022;5.534;2024-03-17T07:48:54;9.90;87.90
65046;DHT22;54657;52.022;5.534;2024-03-17T07:51:19;10.00;87.70
65046;DHT22;54657;52.022;5.534;2024-03-17T07:53:47;10.00;87.80
65046;DHT22;54657;52.022;5.534;2024-03-17T07:56:17;10.10;87.60
65046;DHT22;54657;52.022;5.534;2024-03-17T07:58:44;10.20;87.40
65046;DHT22;54657;52.022;5.534;2024-03-17T08:01:11;10.20;87.30
65046;DHT22;54657;52.022;5.534;2024-03-17T08:03:38;10.40;87.30
65046;DHT22;54657;52.022;5.534;2024-03-17T08:06:08;10.40;87.30
65046;DHT22;54657;52.022;5.534;2024-03-17T08:08:34;10.50;87.30
65046;DHT22;54657;52.022;5.534;2024-03-17T08:11:05;10.50;86.90
65046;DHT22;54657;52.022;5.534;2024-03-17T08:13:31;10.60;86.80
65046;DHT22;54657;52.022;5.534;2024-03-17T08:16:01;10.60;86.80
65046;DHT22;54657;52.022;5.534;2024-03-17T08:18:27;10.60;86.80
65046;DHT22;54657;52.022;5.534;2024-03-17T08:20:53;10.70;86.80
65046;DHT22;54657;52.022;5.534;2024-03-17T08:23:20;10.70;86.80
65046;DHT22;54657;52.022;5.534;2024-03-17T08:26:12;10.70;86.80
65046;DHT22;54657;52.022;5.534;2024-03-17T08:28:38;10.80;86.90
65046;DHT22;54657;52.022;5.534;2024-03-17T08:31:04;10.80;86.90
65046;DHT22;54657;52.022;5.534;2024-03-17T08:33:31;10.90;86.90
65046;DHT22;54657;52.022;5.534;2024-03-17T08:36:02;10.90;86.90
65046;DHT22;54657;52.022;5.534;2024-03-17T08:38:30;10.90;86.90
65046;DHT22;54657;52.022;5.534;2024-03-17T08:40:57;11.00;86.90
65046;DHT22;54657;52.022;5.534;2024-03-17T08:43:23;11.00;86.80
65046;DHT22;54657;52.022;5.534;2024-03-17T08:46:00;11.00;86.70
65046;DHT22;54657;52.022;5.534;2024-03-17T08:48:28;11.00;87.20
65046;DHT22;54657;52.022;5.534;2024-03-17T08:50:55;10.90;86.50
65046;DHT22;54657;52.022;5.534;2024-03-17T08:53:21;11.00;86.80
65046;DHT22;54657;52.022;5.534;2024-03-17T08:55:47;11.00;86.70
65046;DHT22;54657;52.022;5.534;2024-03-17T08:58:12;11.00;86.60
65046;DHT22;54657;52.022;5.534;2024-03-17T09:00:38;11.10;86.50
65046;DHT22;54657;52.022;5.534;2024-03-17T09:03:05;11.10;86.50
65046;DHT22;54657;52.022;5.534;2024-03-17T09:05:34;11.10;86.30
65046;DHT22;54657;52.022;5.534;2024-03-17T09:07:59;11.20;86.40
65046;DHT22;54657;52.022;5.534;2024-03-17T09:10:26;11.10;86.40
65046;DHT22;54657;52.022;5.534;2024-03-17T09:12:51;11.20;86.40
65046;DHT22;54657;52.022;5.534;2024-03-17T09:15:17;11.20;86.40
65046;DHT22;54657;52.022;5.534;2024-03-17T09:17:43;11.20;86.40
65046;DHT22;54657;52.022;5.534;2024-03-17T09:20:11;11.20;86.30
65046;DHT22;54657;52.022;5.534;2024-03-17T09:22:41;11.30;86.40
65046;DHT22;54657;52.022;5.534;2024-03-17T09:25:07;11.40;86.30
65046;DHT22;54657;52.022;5.534;2024-03-17T09:27:33;11.40;86.30
65046;DHT22;54657;52.022;5.534;2024-03-17T09:30:06;11.50;86.10
65046;DHT22;54657;52.022;5.534;2024-03-17T09:33:00;11.60;85.90
65046;DHT22;54657;52.022;5.534;2024-03-17T09:35:26;11.60;85.70
65046;DHT22;54657;52.022;5.534;2024-03-17T09:37:51;11.60;86.10
65046;DHT22;54657;52.022;5.534;2024-03-17T09:40:17;11.70;86.00
65046;DHT22;54657;52.022;5.534;2024-03-17T09:42:46;11.80;85.70
65046;DHT22;54657;52.022;5.534;2024-03-17T09:45:24;11.90;85.70
65046;DHT22;54657;52.022;5.534;2024-03-17T09:47:51;12.00;85.70
65046;DHT22;54657;52.022;5.534;2024-03-17T09:50:16;12.00;85.40
65046;DHT22;54657;52.022;5.534;2024-03-17T09:52:45;12.20;85.80
65046;DHT22;54657;52.022;5.534;2024-03-17T09:55:15;12.30;85.50
65046;DHT22;54657;52.022;5.534;2024-03-17T09:57:42;12.40;85.20
65046;DHT22;54657;52.022;5.534;2024-03-17T10:00:15;12.60;85.00
65046;DHT22;54657;52.022;5.534;2024-03-17T10:02:45;12.70;84.80
65046;DHT22;54657;52.022;5.534;2024-03-17T10:05:21;12.80;84.70
65046;DHT22;54657;52.022;5.534;2024-03-17T10:07:48;12.90;84.00
65046;DHT22;54657;52.022;5.534;2024-03-17T10:10:15;12.90;84.60
65046;DHT22;54657;52.022;5.534;2024-03-17T10:12:42;12.90;84.30
65046;DHT22;54657;52.022;5.534;2024-03-17T10:15:12;12.90;84.40
65046;DHT22;54657;52.022;5.534;2024-03-17T10:17:38;13.00;84.40
65046;DHT22;54657;52.022;5.534;2024-03-17T10:20:17;13.00;84.40
65046;DHT22;54657;52.022;5.534;2024-03-17T10:23:05;13.10;83.60
65046;DHT22;54657;52.022;5.534;2024-03-17T10:25:32;13.10;83.90
65046;DHT22;54657;52.022;5.534;2024-03-17T10:27:59;13.20;84.30
65046;DHT22;54657;52.022;5.534;2024-03-17T10:30:26;13.20;84.10
65046;DHT22;54657;52.022;5.534;2024-03-17T10:32:58;13.20;84.10
65046;DHT22;54657;52.022;5.534;2024-03-17T10:42:07;13.30;84.10
65046;DHT22;54657;52.022;5.534;2024-03-17T10:44:35;13.20;84.40
65046;DHT22;54657;52.022;5.534;2024-03-17T10:47:02;13.30;84.30
65046;DHT22;54657;52.022;5.534;2024-03-17T10:49:33;13.30;84.20
65046;DHT22;54657;52.022;5.534;2024-03-17T10:52:03;13.40;84.00
65046;DHT22;54657;52.022;5.534;2024-03-17T10:54:30;13.40;84.10
65046;DHT22;54657;52.022;5.534;2024-03-17T10:57:03;13.40;84.10
65046;DHT22;54657;52.022;5.534;2024-03-17T10:59:42;13.50;84.20
65046;DHT22;54657;52.022;5.534;2024-03-17T11:02:25;13.50;83.70
65046;DHT22;54657;52.022;5.534;2024-03-17T11:05:01;13.50;83.70
65046;DHT22;54657;52.022;5.534;2024-03-17T11:07:28;13.50;83.50
65046;DHT22;54657;52.022;5.534;2024-03-17T11:09:57;13.50;84.00
65046;DHT22;54657;52.022;5.534;2024-03-17T11:12:45;13.50;83.70
65046;DHT22;54657;52.022;5.534;2024-03-17T11:15:35;13.50;82.60
65046;DHT22;54657;52.022;5.534;2024-03-17T11:20:40;13.60;83.90
65046;DHT22;54657;52.022;5.534;2024-03-17T11:23:07;13.60;83.80
65046;DHT22;54657;52.022;5.534;2024-03-17T11:28:06;13.70;83.70
65046;DHT22;54657;52.022;5.534;2024-03-17T11:38:55;13.80;83.30
65046;DHT22;54657;52.022;5.534;2024-03-17T11:41:36;13.80;83.40
65046;DHT22;54657;52.022;5.534;2024-03-17T11:46:51;13.80;82.60
65046;DHT22;54657;52.022;5.534;2024-03-17T11:49:31;13.80;83.40
65046;DHT22;54657;52.022;5.534;2024-03-17T11:51:58;13.80;83.40
65046;DHT22;54657;52.022;5.534;2024-03-17T11:54:26;13.80;83.30
65046;DHT22;54657;52.022;5.534;2024-03-17T11:56:56;13.80;83.40
65046;DHT22;54657;52.022;5.534;2024-03-17T11:59:25;13.80;83.30
65046;DHT22;54657;52.022;5.534;2024-03-17T12:01:51;13.80;83.20
65046;DHT22;54657;52.022;5.534;2024-03-17T12:04:19;13.80;83.10
65046;DHT22;54657;52.022;5.534;2024-03-17T12:06:48;13.70;83.00
65046;DHT22;54657;52.022;5.534;2024-03-17T12:12:01;13.70;83.00
65046;DHT22;54657;52.022;5.534;2024-03-17T12:14:28;13.70;82.90
65046;DHT22;54657;52.022;5.534;2024-03-17T12:17:04;13.60;83.50
65046;DHT22;54657;52.022;5.534;2024-03-17T12:19:30;13.60;83.20
65046;DHT22;54657;52.022;5.534;2024-03-17T12:21:58;13.60;83.30
65046;DHT22;54657;52.022;5.534;2024-03-17T12:24:26;13.70;83.90
65046;DHT22;54657;52.022;5.534;2024-03-17T12:26:53;13.60;83.40
65046;DHT22;54657;52.022;5.534;2024-03-17T12:29:34;13.60;83.10
65046;DHT22;54657;52.022;5.534;2024-03-17T12:32:03;13.70;83.10
65046;DHT22;54657;52.022;5.534;2024-03-17T12:34:31;13.70;83.30
65046;DHT22;54657;52.022;5.534;2024-03-17T12:36:59;13.70;83.20
65046;DHT22;54657;52.022;5.534;2024-03-17T12:39:29;13.80;83.20
65046;DHT22;54657;52.022;5.534;2024-03-17T12:42:09;13.80;83.10
65046;DHT22;54657;52.022;5.534;2024-03-17T12:47:18;13.80;82.80
65046;DHT22;54657;52.022;5.534;2024-03-17T12:49:54;13.80;83.00
65046;DHT22;54657;52.022;5.534;2024-03-17T12:52:24;13.80;83.00
65046;DHT22;54657;52.022;5.534;2024-03-17T12:55:06;13.80;83.20
65046;DHT22;54657;52.022;5.534;2024-03-17T12:57:51;13.80;83.20
65046;DHT22;54657;52.022;5.534;2024-03-17T13:00:37;13.80;83.20
65046;DHT22;54657;52.022;5.534;2024-03-17T13:03:04;13.80;83.00
65046;DHT22;54657;52.022;5.534;2024-03-17T13:05:31;13.70;83.10
65046;DHT22;54657;52.022;5.534;2024-03-17T13:07:57;13.80;83.30
65046;DHT22;54657;52.022;5.534;2024-03-17T13:10:24;13.80;83.20
65046;DHT22;54657;52.022;5.534;2024-03-17T13:13:04;13.80;83.00
65046;DHT22;54657;52.022;5.534;2024-03-17T13:15:31;13.80;82.90
65046;DHT22;54657;52.022;5.534;2024-03-17T13:18:00;13.80;83.20
65046;DHT22;54657;52.022;5.534;2024-03-17T13:20:26;13.80;83.10
65046;DHT22;54657;52.022;5.534;2024-03-17T13:22:52;13.70;83.20
65046;DHT22;54657;52.022;5.534;2024-03-17T13:25:22;13.80;83.40
65046;DHT22;54657;52.022;5.534;2024-03-17T13:27:50;13.80;83.50
65046;DHT22;54657;52.022;5.534;2024-03-17T13:30:17;13.80;83.30
65046;DHT22;54657;52.022;5.534;2024-03-17T13:32:45;13.90;83.10
65046;DHT22;54657;52.022;5.534;2024-03-17T13:35:29;14.00;83.30
65046;DHT22;54657;52.022;5.534;2024-03-17T13:37:57;14.00;82.10
65046;DHT22;54657;52.022;5.534;2024-03-17T13:40:29;14.00;82.90
65046;DHT22;54657;52.022;5.534;2024-03-17T13:47:33;14.10;82.50
65046;DHT22;54657;52.022;5.534;2024-03-17T13:50:43;14.00;82.10
65046;DHT22;54657;52.022;5.534;2024-03-17T13:53:09;14.10;82.80
65046;DHT22;54657;52.022;5.534;2024-03-17T13:55:35;14.10;83.70
65046;DHT22;54657;52.022;5.534;2024-03-17T13:58:01;14.10;83.00
65046;DHT22;54657;52.022;5.534;2024-03-17T14:00:28;14.10;82.90
65046;DHT22;54657;52.022;5.534;2024-03-17T14:02:55;14.10;82.90
65046;DHT22;54657;52.022;5.534;2024-03-17T14:05:25;14.10;82.80
65046;DHT22;54657;52.022;5.534;2024-03-17T14:07:52;14.10;83.00
65046;DHT22;54657;52.022;5.534;2024-03-17T14:10:19;14.20;82.90
65046;DHT22;54657;52.022;5.534;2024-03-17T14:12:45;14.20;83.00
65046;DHT22;54657;52.022;5.534;2024-03-17T14:15:13;14.20;82.90
65046;DHT22;54657;52.022;5.534;2024-03-17T14:17:39;14.20;82.90
65046;DHT22;54657;52.022;5.534;2024-03-17T14:20:06;14.20;82.90
65046;DHT22;54657;52.022;5.534;2024-03-17T14:22:35;14.20;83.00
65046;DHT22;54657;52.022;5.534;2024-03-17T14:25:00;14.30;82.90
65046;DHT22;54657;52.022;5.534;2024-03-17T14:27:26;14.30;82.80
65046;DHT22;54657;52.022;5.534;2024-03-17T14:29:53;14.40;82.90
65046;DHT22;54657;52.022;5.534;2024-03-17T14:32:18;14.40;82.70
65046;DHT22;54657;52.022;5.534;2024-03-17T14:34:47;14.40;82.70
65046;DHT22;54657;52.022;5.534;2024-03-17T14:37:12;14.50;82.60
65046;DHT22;54657;52.022;5.534;2024-03-17T14:39:39;14.50;82.50
65046;DHT22;54657;52.022;5.534;2024-03-17T14:42:05;14.50;82.40
65046;DHT22;54657;52.022;5.534;2024-03-17T14:44:31;14.50;82.30
65046;DHT22;54657;52.022;5.534;2024-03-17T14:46:58;14.50;82.30
65046;DHT22;54657;52.022;5.534;2024-03-17T14:49:23;14.50;82.30
65046;DHT22;54657;52.022;5.534;2024-03-17T14:51:49;14.60;82.60
65046;DHT22;54657;52.022;5.534;2024-03-17T14:54:14;14.60;82.60
65046;DHT22;54657;52.022;5.534;2024-03-17T14:56:40;14.70;82.60
65046;DHT22;54657;52.022;5.534;2024-03-17T14:59:06;14.70;82.30
65046;DHT22;54657;52.022;5.534;2024-03-17T15:01:31;14.60;82.50
65046;DHT22;54657;52.022;5.534;2024-03-17T15:03:57;14.70;82.40
65046;DHT22;54657;52.022;5.534;2024-03-17T15:06:23;14.70;82.40
65046;DHT22;54657;52.022;5.534;2024-03-17T15:08:50;14.70;82.50
65046;DHT22;54657;52.022;5.534;2024-03-17T15:14:20;14.70;82.10
65046;DHT22;54657;52.022;5.534;2024-03-17T15:16:45;14.70;82.10
65046;DHT22;54657;52.022;5.534;2024-03-17T15:19:35;14.70;82.30
65046;DHT22;54657;52.022;5.534;2024-03-17T15:22:07;14.70;81.70
65046;DHT22;54657;52.022;5.534;2024-03-17T15:24:33;14.60;82.30
65046;DHT22;54657;52.022;5.534;2024-03-17T15:26:59;14.60;82.30
65046;DHT22;54657;52.022;5.534;2024-03-17T15:29:27;14.60;82.20
65046;DHT22;54657;52.022;5.534;2024-03-17T15:35:11;14.60;82.10
65046;DHT22;54657;52.022;5.534;2024-03-17T15:37:42;14.50;82.00
65046;DHT22;54657;52.022;5.534;2024-03-17T15:40:20;14.50;82.30
65046;DHT22;54657;52.022;5.534;2024-03-17T15:43:02;14.50;82.30
65046;DHT22;54657;52.022;5.534;2024-03-17T15:45:31;14.50;82.30
65046;DHT22;54657;52.022;5.534;2024-03-17T15:48:08;14.50;82.50
65046;DHT22;54657;52.022;5.534;2024-03-17T15:50:38;14.50;82.60
65046;DHT22;54657;52.022;5.534;2024-03-17T15:53:06;14.50;82.50
65046;DHT22;54657;52.022;5.534;2024-03-17T15:55:40;14.50;82.60
65046;DHT22;54657;52.022;5.534;2024-03-17T15:58:12;14.50;82.50
65046;DHT22;54657;52.022;5.534;2024-03-17T16:00:40;14.50;82.60
65046;DHT22;54657;52.022;5.534;2024-03-17T16:03:33;14.50;82.60
65046;DHT22;54657;52.022;5.534;2024-03-17T16:06:16;14.50;82.60
65046;DHT22;54657;52.022;5.534;2024-03-17T16:21:36;14.50;82.70
65046;DHT22;54657;52.022;5.534;2024-03-17T16:24:13;14.50;82.80
65046;DHT22;54657;52.022;5.534;2024-03-17T16:26:39;14.50;82.70
65046;DHT22;54657;52.022;5.534;2024-03-17T16:29:11;14.40;82.80
65046;DHT22;54657;52.022;5.534;2024-03-17T16:31:38;14.40;82.80
65046;DHT22;54657;52.022;5.534;2024-03-17T16:34:08;14.40;82.80
65046;DHT22;54657;52.022;5.534;2024-03-17T16:36:34;14.40;82.80
65046;DHT22;54657;52.022;5.534;2024-03-17T16:39:07;14.40;82.90